Terminal Aerodrome Forecast
Issued by NWS Missoula, MT

Home | Current Version | Previous Version | Text Only | Print | Product List | Glossary On
Versions: 1 2 3 4 5 6 7 8 9 10 11 12 13 14
363
FTUS45 KMSO 222330
TAFGPI
TAF
KGPI 222330Z 2300/2324 15008KT P6SM -SHSN SCT030 BKN050
     FM230300 18005KT P6SM VCSH BKN040=

USA.gov is the U.S. government's official web portal to all federal, state and local government web resources and services.